createdAt,value
2022-12-23T00:01:54.756Z,1.40
2022-12-23T00:04:39.941Z,1.33
2022-12-23T00:07:25.273Z,1.63
2022-12-23T00:10:11.027Z,1.50
2022-12-23T00:13:15.383Z,1.63
2022-12-23T00:16:05.896Z,1.40
2022-12-23T00:18:53.284Z,1.37
2022-12-23T00:21:38.662Z,1.70
2022-12-23T00:24:23.980Z,1.70
2022-12-23T00:27:09.405Z,1.60
2022-12-23T00:29:54.656Z,1.20
2022-12-23T00:32:40.005Z,1.50
2022-12-23T00:35:25.483Z,1.70
2022-12-23T00:38:10.773Z,1.30
2022-12-23T00:41:14.774Z,1.60
2022-12-23T00:44:00.864Z,1.40
2022-12-23T00:46:46.832Z,1.40
2022-12-23T00:49:44.499Z,1.33
2022-12-23T00:52:29.955Z,1.50
2022-12-23T00:55:15.363Z,1.43
2022-12-23T00:58:00.491Z,1.50
2022-12-23T01:01:05.429Z,1.50
2022-12-23T01:04:09.308Z,1.20
2022-12-23T01:06:54.575Z,1.40
2022-12-23T01:09:39.890Z,1.20
2022-12-23T01:12:25.281Z,1.37
2022-12-23T01:15:10.905Z,1.63
2022-12-23T01:17:56.754Z,1.70
2022-12-23T01:20:41.986Z,1.60
2022-12-23T01:23:27.287Z,1.30
2022-12-23T01:26:12.935Z,1.33
2022-12-23T01:28:58.978Z,1.40
2022-12-23T01:31:44.566Z,1.37
2022-12-23T01:34:36.014Z,1.50
2022-12-23T01:37:22.122Z,1.40
2022-12-23T01:40:08.980Z,1.30
2022-12-23T01:42:54.254Z,1.10
2022-12-23T01:45:39.518Z,1.20
2022-12-23T01:48:27.305Z,1.20
2022-12-23T01:51:22.844Z,1.20
2022-12-23T01:54:08.467Z,1.40
2022-12-23T01:56:53.927Z,1.20
2022-12-23T01:59:59.715Z,1.10
2022-12-23T02:03:05.394Z,1.10
2022-12-23T02:05:52.663Z,1.00
2022-12-23T02:08:58.044Z,1.43
2022-12-23T02:12:24.267Z,1.37
2022-12-23T02:15:48.411Z,1.10
2022-12-23T02:19:04.086Z,1.07
2022-12-23T02:22:13.166Z,1.33
2022-12-23T02:25:39.448Z,1.13
2022-12-23T02:28:34.091Z,1.00
2022-12-23T02:31:55.156Z,1.30
2022-12-23T02:34:46.229Z,1.40
2022-12-23T02:37:48.895Z,1.10
2022-12-23T02:41:22.623Z,1.30
2022-12-23T02:44:08.118Z,1.13
2022-12-23T02:47:00.383Z,1.17
2022-12-23T02:49:51.739Z,1.30
2022-12-23T02:52:41.310Z,1.10
2022-12-23T02:55:32.597Z,1.00
2022-12-23T02:58:23.563Z,1.10
2022-12-23T03:01:11.537Z,1.00
2022-12-23T03:03:56.987Z,1.20
2022-12-23T03:06:46.299Z,1.00
2022-12-23T03:09:44.438Z,1.00
2022-12-23T03:13:03.249Z,1.00
2022-12-23T03:16:22.667Z,1.20
2022-12-23T03:19:10.656Z,1.20
2022-12-23T03:22:23.838Z,1.30
2022-12-23T03:25:21.911Z,1.10
2022-12-23T03:28:16.202Z,1.10
2022-12-23T03:31:06.019Z,1.17
2022-12-23T03:33:57.294Z,1.00
2022-12-23T03:36:50.188Z,1.00
2022-12-23T03:39:45.690Z,0.82
2022-12-23T03:42:36.882Z,1.10
2022-12-23T03:45:42.155Z,0.90
2022-12-23T03:48:39.611Z,1.10
2022-12-23T03:51:34.492Z,1.00
2022-12-23T03:54:28.031Z,1.20
2022-12-23T03:57:14.229Z,1.20
2022-12-23T03:59:59.603Z,1.20
2022-12-23T04:02:59.528Z,1.20
2022-12-23T04:05:53.442Z,1.00
2022-12-23T04:08:39.895Z,1.00
2022-12-23T04:11:25.589Z,1.23
2022-12-23T04:14:10.911Z,1.30
2022-12-23T04:16:58.450Z,1.30
2022-12-23T04:19:48.087Z,1.13
2022-12-23T04:22:33.777Z,1.20
2022-12-23T04:25:19.659Z,1.37
2022-12-23T04:28:05.120Z,1.30
2022-12-23T04:30:50.714Z,1.23
2022-12-23T04:33:36.146Z,1.37
2022-12-23T04:36:21.927Z,1.73
2022-12-23T04:39:07.067Z,1.53
2022-12-23T04:41:52.188Z,1.57
2022-12-23T04:44:37.664Z,1.20
2022-12-23T04:47:23.077Z,1.50
2022-12-23T04:50:13.157Z,1.60
2022-12-23T04:52:58.696Z,1.47
2022-12-23T04:55:44.009Z,1.30
2022-12-23T04:58:29.475Z,1.33
2022-12-23T05:01:14.730Z,1.40
2022-12-23T05:04:00.195Z,1.23
2022-12-23T05:06:45.481Z,1.20
2022-12-23T05:09:30.796Z,1.00
2022-12-23T05:12:16.224Z,1.33
2022-12-23T05:15:01.413Z,1.10
2022-12-23T05:17:46.660Z,1.13
2022-12-23T05:20:31.904Z,1.03
2022-12-23T05:23:17.195Z,1.10
2022-12-23T05:26:02.765Z,1.00
2022-12-23T05:28:48.115Z,1.20
2022-12-23T05:31:33.383Z,1.00
2022-12-23T05:34:18.621Z,1.00
2022-12-23T05:37:03.898Z,1.37
2022-12-23T05:39:49.322Z,0.90
2022-12-23T05:42:34.765Z,1.30
2022-12-23T05:45:20.689Z,1.00
2022-12-23T05:48:06.599Z,1.13
2022-12-23T05:50:53.179Z,1.10
2022-12-23T05:53:38.878Z,1.30
2022-12-23T05:56:24.228Z,1.10
2022-12-23T05:59:09.588Z,1.23
2022-12-23T06:01:54.914Z,0.93
2022-12-23T06:04:40.591Z,1.10
2022-12-23T06:07:26.082Z,1.20
2022-12-23T06:10:11.756Z,1.07
2022-12-23T06:12:57.168Z,1.20
2022-12-23T06:15:42.509Z,1.40
2022-12-23T06:18:27.842Z,1.00
2022-12-23T06:21:13.266Z,1.63
2022-12-23T06:23:58.896Z,1.23
2022-12-23T06:26:44.675Z,1.27
2022-12-23T06:29:29.864Z,1.47
2022-12-23T06:32:18.033Z,0.93
2022-12-23T06:35:04.252Z,1.30
2022-12-23T06:37:52.470Z,1.50
2022-12-23T06:40:37.990Z,1.20
2022-12-23T06:43:23.242Z,0.90
2022-12-23T06:46:10.362Z,1.07
2022-12-23T06:48:56.014Z,1.20
2022-12-23T06:51:41.543Z,0.90
2022-12-23T06:54:27.146Z,1.00
2022-12-23T06:57:12.636Z,1.10
2022-12-23T06:59:57.989Z,1.00
2022-12-23T07:02:43.367Z,0.90
2022-12-23T07:05:34.906Z,0.70
2022-12-23T07:08:22.589Z,1.13
2022-12-23T07:11:08.646Z,1.37
2022-12-23T07:13:54.142Z,1.20
2022-12-23T07:16:39.484Z,1.10
2022-12-23T07:19:25.637Z,1.07
2022-12-23T07:22:11.785Z,1.00
2022-12-23T07:24:57.547Z,1.20
2022-12-23T07:27:43.346Z,1.10
2022-12-23T07:30:29.285Z,1.00
2022-12-23T07:33:14.526Z,1.10
2022-12-23T07:36:00.562Z,1.10
2022-12-23T07:38:50.115Z,1.30
2022-12-23T07:49:58.836Z,1.03
2022-12-23T07:52:43.609Z,1.30
2022-12-23T07:55:28.444Z,1.30
2022-12-23T07:58:13.016Z,1.00
2022-12-23T08:01:07.230Z,1.20
2022-12-23T08:03:51.786Z,1.10
2022-12-23T08:06:36.943Z,0.80
2022-12-23T08:20:05.480Z,1.00
2022-12-23T08:22:50.885Z,1.10
2022-12-23T08:25:35.944Z,1.00
2022-12-23T08:28:21.170Z,1.10
2022-12-23T08:31:09.478Z,0.90
2022-12-23T08:33:57.020Z,0.90
2022-12-23T08:36:42.391Z,1.20
2022-12-23T08:39:28.278Z,1.00
2022-12-23T08:42:13.774Z,1.13
2022-12-23T08:45:00.024Z,1.20
2022-12-23T08:47:45.648Z,0.90
2022-12-23T08:50:31.572Z,1.00
2022-12-23T08:53:16.860Z,1.20
2022-12-23T08:56:04.740Z,1.10
2022-12-23T08:58:52.718Z,0.97
2022-12-23T09:01:38.136Z,1.20
2022-12-23T09:04:23.885Z,1.00
2022-12-23T09:07:09.853Z,0.90
2022-12-23T09:09:55.077Z,1.00
2022-12-23T09:12:40.366Z,0.70
2022-12-23T09:15:25.798Z,1.20
2022-12-23T09:18:12.069Z,1.00
2022-12-23T09:21:02.728Z,0.83
2022-12-23T09:23:48.952Z,0.90
2022-12-23T09:26:34.379Z,1.00
2022-12-23T09:29:19.601Z,1.10
2022-12-23T09:32:04.886Z,1.00
2022-12-23T09:34:50.259Z,0.90
2022-12-23T09:37:36.121Z,0.93
2022-12-23T09:40:22.367Z,1.10
2022-12-23T09:43:45.119Z,1.20
2022-12-23T09:46:33.961Z,1.33
2022-12-23T09:49:21.122Z,1.00
2022-12-23T09:52:13.508Z,1.13
2022-12-23T09:54:59.004Z,1.05
2022-12-23T09:58:02.431Z,1.20
2022-12-23T10:01:14.739Z,1.23
2022-12-23T10:04:06.160Z,1.33
2022-12-23T10:07:22.854Z,0.90
2022-12-23T10:10:37.282Z,1.00
2022-12-23T10:13:38.057Z,1.00
2022-12-23T10:16:31.482Z,0.90
2022-12-23T10:19:34.176Z,1.00
2022-12-23T10:22:41.925Z,0.93
2022-12-23T10:25:37.308Z,0.97
2022-12-23T10:28:23.424Z,0.70
2022-12-23T10:31:40.155Z,1.23
2022-12-23T10:34:47.257Z,1.50
2022-12-23T10:38:00.831Z,1.73
2022-12-23T10:41:15.591Z,1.83
2022-12-23T10:44:19.076Z,1.73
2022-12-23T10:47:16.807Z,1.67
2022-12-23T10:50:14.956Z,1.53
2022-12-23T10:53:04.546Z,2.00
2022-12-23T10:55:50.445Z,1.73
2022-12-23T10:58:41.033Z,1.30
2022-12-23T11:01:30.270Z,1.33
2022-12-23T11:04:19.629Z,1.33
2022-12-23T11:07:42.896Z,1.60
2022-12-23T11:10:21.976Z,1.43
2022-12-23T11:13:07.846Z,1.20
2022-12-23T11:15:53.871Z,1.20
2022-12-23T11:18:52.910Z,1.30
2022-12-23T11:21:38.572Z,1.40
2022-12-23T11:24:25.722Z,1.57
2022-12-23T11:27:14.658Z,1.30
2022-12-23T11:30:00.042Z,1.50
2022-12-23T11:32:45.584Z,1.27
2022-12-23T11:35:33.662Z,1.30
2022-12-23T11:47:21.159Z,1.53
2022-12-23T11:50:29.812Z,1.40
2022-12-23T11:53:22.017Z,1.30
2022-12-23T11:56:13.076Z,1.20
2022-12-23T11:59:22.011Z,1.30
2022-12-23T12:02:14.795Z,1.10
2022-12-23T12:07:51.388Z,1.30
2022-12-23T12:10:39.781Z,1.30
2022-12-23T12:13:38.120Z,1.03
2022-12-23T12:16:48.481Z,1.00
2022-12-23T12:19:43.202Z,1.00
2022-12-23T12:22:38.267Z,1.00
2022-12-23T12:25:39.862Z,1.17
2022-12-23T12:28:47.237Z,1.10
2022-12-23T12:31:39.689Z,1.10
2022-12-23T12:34:34.298Z,1.10
2022-12-23T12:37:36.929Z,0.90
2022-12-23T12:40:34.878Z,1.40
2022-12-23T12:43:28.843Z,0.97
2022-12-23T12:46:39.154Z,1.07
2022-12-23T12:50:02.827Z,1.10
2022-12-23T12:52:51.862Z,0.90
2022-12-23T12:55:42.315Z,1.07
2022-12-23T12:58:27.669Z,1.20
2022-12-23T13:01:13.021Z,0.90
2022-12-23T13:04:25.017Z,1.00
2022-12-23T13:07:29.538Z,0.80
2022-12-23T13:10:30.478Z,0.60
2022-12-23T13:13:43.403Z,0.63
2022-12-23T13:16:39.889Z,1.00
2022-12-23T13:19:37.655Z,1.00
2022-12-23T13:22:33.648Z,1.67
2022-12-23T13:25:35.305Z,1.77
2022-12-23T13:28:55.110Z,1.43
2022-12-23T13:32:00.746Z,1.20
2022-12-23T13:35:03.566Z,1.27
2022-12-23T13:38:16.198Z,1.23
2022-12-23T13:41:25.303Z,1.00
2022-12-23T13:44:13.564Z,1.20
2022-12-23T13:47:36.990Z,1.00
2022-12-23T13:51:15.198Z,0.90
2022-12-23T13:54:22.867Z,1.03
2022-12-23T13:57:14.705Z,1.10
2022-12-23T14:00:17.056Z,1.20
2022-12-23T14:03:03.410Z,0.95
2022-12-23T14:05:53.283Z,1.13
2022-12-23T14:08:42.655Z,0.97
2022-12-23T14:11:32.051Z,1.30
2022-12-23T14:14:23.922Z,1.40
2022-12-23T14:17:21.723Z,1.20
2022-12-23T14:20:45.532Z,0.90
2022-12-23T14:23:50.076Z,1.30
2022-12-23T14:26:47.026Z,1.10
2022-12-23T14:30:01.517Z,1.17
2022-12-23T14:32:57.219Z,0.90
2022-12-23T14:35:43.075Z,0.80
2022-12-23T14:38:30.463Z,1.00
2022-12-23T14:41:38.932Z,1.27
2022-12-23T14:44:37.096Z,1.00
2022-12-23T14:47:35.789Z,0.93
2022-12-23T14:50:41.680Z,1.23
2022-12-23T14:53:31.809Z,1.27
2022-12-23T14:56:32.586Z,1.00
2022-12-23T14:59:24.577Z,0.97
2022-12-23T15:02:22.520Z,1.00
2022-12-23T15:05:08.799Z,1.30
2022-12-23T15:07:56.092Z,1.27
2022-12-23T15:10:44.472Z,1.87
2022-12-23T15:13:32.419Z,1.33
2022-12-23T15:16:18.750Z,1.10
2022-12-23T15:19:20.034Z,1.70
2022-12-23T15:22:17.260Z,1.47
2022-12-23T15:25:32.819Z,1.20
2022-12-23T15:28:24.304Z,1.40
2022-12-23T15:31:35.834Z,1.70
2022-12-23T15:34:31.145Z,2.27
2022-12-23T15:37:20.861Z,2.20
2022-12-23T15:40:13.194Z,1.70
2022-12-23T15:42:59.563Z,1.80
2022-12-23T15:45:45.493Z,1.80
2022-12-23T15:48:32.843Z,2.17
2022-12-23T15:51:50.072Z,2.23
2022-12-23T15:54:35.025Z,2.30
2022-12-23T15:57:24.141Z,2.23
2022-12-23T16:00:43.589Z,1.90
2022-12-23T16:03:31.992Z,1.83
2022-12-23T16:06:17.224Z,1.90
2022-12-23T16:09:17.806Z,1.93
2022-12-23T16:12:24.381Z,1.50
2022-12-23T16:15:26.614Z,1.50
2022-12-23T16:18:28.556Z,1.70
2022-12-23T16:21:14.197Z,2.23
2022-12-23T16:24:00.860Z,2.90
2022-12-23T16:26:45.938Z,3.50
2022-12-23T16:29:33.488Z,3.00
2022-12-23T16:32:19.952Z,3.03
2022-12-23T16:35:12.565Z,2.60
2022-12-23T16:38:22.043Z,2.53
2022-12-23T16:41:07.681Z,2.73
2022-12-23T16:43:53.231Z,2.13
2022-12-23T16:46:42.817Z,2.40
2022-12-23T16:49:33.841Z,2.20
2022-12-23T16:52:20.044Z,2.30
2022-12-23T16:55:14.291Z,2.33
2022-12-23T16:57:59.782Z,1.90
2022-12-23T17:00:45.639Z,1.93
2022-12-23T17:03:32.651Z,2.07
2022-12-23T17:06:19.909Z,1.70
2022-12-23T17:09:06.024Z,1.50
2022-12-23T17:11:53.612Z,2.17
2022-12-23T17:14:38.979Z,1.53
2022-12-23T17:17:26.060Z,1.77
2022-12-23T17:20:12.039Z,1.40
2022-12-23T17:22:59.669Z,1.63
2022-12-23T17:25:44.818Z,1.80
2022-12-23T17:28:32.856Z,2.47
2022-12-23T17:31:26.310Z,1.97
2022-12-23T17:34:21.265Z,1.77
2022-12-23T17:37:21.465Z,1.90
2022-12-23T17:40:07.952Z,1.50
2022-12-23T17:42:53.435Z,1.70
2022-12-23T17:45:38.795Z,1.43
2022-12-23T17:48:29.614Z,1.70
2022-12-23T17:51:19.096Z,1.63
2022-12-23T17:54:05.780Z,1.90
2022-12-23T17:56:51.656Z,2.07
2022-12-23T17:59:38.814Z,2.30
2022-12-23T18:02:28.049Z,1.90
2022-12-23T18:05:28.322Z,1.67
2022-12-23T18:08:14.012Z,1.87
2022-12-23T18:10:59.921Z,1.47
2022-12-23T18:13:46.648Z,1.67
2022-12-23T18:16:32.315Z,1.67
2022-12-23T18:19:19.569Z,1.50
2022-12-23T18:22:04.955Z,1.60
2022-12-23T18:24:56.972Z,1.57
2022-12-23T18:27:45.657Z,1.60
2022-12-23T18:30:31.433Z,1.97
2022-12-23T18:33:18.084Z,1.80
2022-12-23T18:36:04.123Z,2.33
2022-12-23T18:38:52.122Z,2.43
2022-12-23T18:41:37.521Z,2.23
2022-12-23T18:44:22.919Z,1.93
2022-12-23T18:47:08.985Z,1.70
2022-12-23T18:49:54.497Z,1.90
2022-12-23T18:52:40.899Z,1.80
2022-12-23T18:55:28.118Z,1.63
2022-12-23T18:58:14.963Z,1.70
2022-12-23T19:01:01.301Z,1.70
2022-12-23T19:03:47.017Z,1.90
2022-12-23T19:06:32.507Z,1.77
2022-12-23T19:09:20.479Z,1.73
2022-12-23T19:12:05.759Z,1.87
2022-12-23T19:14:51.239Z,2.23
2022-12-23T19:17:36.540Z,2.33
2022-12-23T19:20:21.865Z,2.60
2022-12-23T19:23:07.289Z,2.77
2022-12-23T19:25:55.227Z,3.00
2022-12-23T19:28:41.924Z,2.77
2022-12-23T19:31:27.491Z,2.67
2022-12-23T19:34:15.818Z,3.10
2022-12-23T19:37:03.096Z,2.90
2022-12-23T19:39:50.752Z,2.87
2022-12-23T19:42:43.252Z,2.53
2022-12-23T19:45:29.721Z,3.33
2022-12-23T19:48:15.035Z,2.50
2022-12-23T19:51:09.181Z,2.73
2022-12-23T19:53:54.576Z,2.53
2022-12-23T19:56:40.238Z,2.73
2022-12-23T19:59:25.656Z,2.70
2022-12-23T20:02:15.781Z,2.90
2022-12-23T20:05:00.922Z,2.20
2022-12-23T20:07:46.145Z,3.13
2022-12-23T20:10:31.517Z,2.30
2022-12-23T20:13:16.653Z,2.73
2022-12-23T20:16:03.474Z,2.40
2022-12-23T20:18:49.541Z,2.37
2022-12-23T20:21:35.697Z,2.23
2022-12-23T20:24:21.227Z,2.50
2022-12-23T20:27:11.426Z,1.90
2022-12-23T20:29:58.067Z,2.10
2022-12-23T20:32:43.732Z,1.90
2022-12-23T20:35:30.446Z,2.10
2022-12-23T20:38:15.868Z,1.97
2022-12-23T20:41:02.942Z,2.10
2022-12-23T20:44:02.820Z,2.00
2022-12-23T20:46:53.973Z,2.07
2022-12-23T20:49:39.427Z,1.90
2022-12-23T20:52:25.721Z,1.83
2022-12-23T20:55:11.062Z,1.83
2022-12-23T20:57:56.234Z,2.17
2022-12-23T21:00:41.535Z,2.07
2022-12-23T21:03:27.130Z,1.93
2022-12-23T21:06:12.699Z,1.90
2022-12-23T21:08:59.805Z,2.10
2022-12-23T21:11:47.705Z,2.20
2022-12-23T21:14:33.769Z,1.80
2022-12-23T21:17:21.041Z,1.70
2022-12-23T21:20:09.267Z,1.87
2022-12-23T21:22:54.751Z,2.10
2022-12-23T21:25:39.961Z,1.70
2022-12-23T21:28:26.089Z,2.27
2022-12-23T21:31:11.514Z,1.90
2022-12-23T21:33:57.979Z,1.90
2022-12-23T21:36:43.766Z,1.93
2022-12-23T21:39:29.409Z,1.63
2022-12-23T21:42:15.096Z,1.80
2022-12-23T21:45:00.383Z,2.27
2022-12-23T21:47:45.624Z,2.47
2022-12-23T21:50:30.851Z,1.73
2022-12-23T21:53:16.067Z,1.90
2022-12-23T21:56:07.629Z,1.77
2022-12-23T21:59:06.928Z,1.90
2022-12-23T22:01:52.276Z,1.63
2022-12-23T22:04:38.071Z,1.73
2022-12-23T22:07:23.591Z,1.90
2022-12-23T22:10:09.463Z,1.63
2022-12-23T22:12:54.664Z,1.63
2022-12-23T22:15:42.041Z,1.90
2022-12-23T22:18:27.377Z,1.87
2022-12-23T22:21:15.602Z,1.87
2022-12-23T22:24:01.797Z,2.00
2022-12-23T22:26:47.114Z,2.20
2022-12-23T22:29:32.502Z,1.90
2022-12-23T22:32:17.805Z,1.87
2022-12-23T22:35:03.140Z,2.30
2022-12-23T22:37:48.418Z,1.87
2022-12-23T22:40:33.606Z,1.73
2022-12-23T22:43:19.602Z,1.77
2022-12-23T22:46:05.594Z,1.50
2022-12-23T22:48:52.674Z,1.70
2022-12-23T22:51:40.070Z,1.53
2022-12-23T22:54:25.346Z,1.63
2022-12-23T22:57:11.381Z,1.80
2022-12-23T22:59:56.994Z,2.00
2022-12-23T23:02:42.599Z,1.70
2022-12-23T23:05:28.026Z,1.43
2022-12-23T23:08:14.590Z,1.77
2022-12-23T23:11:02.901Z,1.60
2022-12-23T23:13:48.586Z,1.30
2022-12-23T23:16:34.108Z,1.67
2022-12-23T23:19:20.533Z,1.60
2022-12-23T23:22:06.093Z,1.57
2022-12-23T23:24:51.927Z,1.60
2022-12-23T23:27:37.562Z,1.50
2022-12-23T23:30:22.835Z,1.63
2022-12-23T23:33:09.960Z,1.90
2022-12-23T23:35:56.172Z,1.13
2022-12-23T23:38:41.968Z,1.40
2022-12-23T23:41:27.255Z,1.50
2022-12-23T23:44:12.940Z,1.50
2022-12-23T23:46:58.208Z,1.40
2022-12-23T23:49:43.470Z,1.50
2022-12-23T23:52:29.183Z,1.40
2022-12-23T23:55:15.181Z,1.43
2022-12-23T23:58:00.642Z,1.43
